< < Back
Terminal Aerodrome Forecast


Current Version              Previous Versions:   1  2  3  4  5  6  7  8  9  

Terminal Aerodrome Forecast

704
FTUS42 KGSP 270500
TAFGSP
TAF
KGSP 270532Z 2706/2806 01004KT P6SM SKC
     FM271500 03004KT P6SM FEW045
     FM280200 21003KT P6SM SKC=



Latest METAR

401
SAUS70 KWBC 270800 RRD
MTRGSP
METAR KGSP 270753Z AUTO 00000KT 10SM CLR 18/16 A3008 RMK AO2 SLP175
T01830156


USA.gov is the U.S. government's official web portal to all federal, state and local government web resources and services.